M I D A S
Marine Information and Data Acquisition System
Tripno 1314 of the Zeeleeuw from 2007-07-10 09:12:23 to 2007-07-10 14:21:19
Back to CruiseResearch ActivitiesStationsMapUnderway DataData graphs

EquipmentUnitsComment
TimeDGPSUTC
LatitudeDGPSDM.mWGS84
LongitudeDGPSDM.mWGS84
HeadingGyrodeg 
SOGDGPSknotsSpeed over ground
COGDGPSdegCourse over ground
DepthEcho soundermeters200 kHz
Missing or incorrect values are displayed as -999
Navigation data collected by the RV Zeeleeuw from 2007-07-10 05:43:28 to 2007-07-10 14:29:43
Time Latitude Longitude Heading SOG COG Depth
2007-07-10 05:44:33 51°13.599 2°56.091 124.8 -999 89 -999
2007-07-10 05:45:33 51°13.599 2°56.092 124.9 -999 266 -999
2007-07-10 05:46:33 51°13.6 2°56.094 125 -999 330 -999
2007-07-10 05:47:33 51°13.6 2°56.095 125 -999 78 -999
2007-07-10 05:48:33 51°13.6 2°56.095 125 -999 266 -999
2007-07-10 05:49:33 51°13.6 2°56.095 125 -999 213 -999
2007-07-10 05:50:33 51°13.6 2°56.094 125.2 -999 298 -999
2007-07-10 05:51:33 51°13.6 2°56.095 125.1 -999 5 -999
2007-07-10 05:52:33 51°13.6 2°56.096 125.2 -999 302 -999
2007-07-10 05:53:33 51°13.6 2°56.096 125.2 -999 256 -999
2007-07-10 05:54:33 51°13.601 2°56.095 125.2 -999 16 -999
2007-07-10 05:55:33 51°13.6 2°56.096 125.2 -999 290 -999
2007-07-10 05:56:33 51°13.601 2°56.095 125.2 -999 98 -999
2007-07-10 05:57:33 51°13.601 2°56.094 125.1 -999 152 -999
2007-07-10 05:58:33 51°13.6 2°56.095 125.1 -999 49 -999
2007-07-10 05:59:33 51°13.6 2°56.095 125.2 -999 87 -999
2007-07-10 06:00:33 51°13.6 2°56.096 125.5 -999 99 -999
2007-07-10 06:01:33 51°13.599 2°56.095 125.5 -999 261 -999
2007-07-10 06:02:33 51°13.599 2°56.095 125.5 -999 160 -999
2007-07-10 06:03:33 51°13.599 2°56.095 125.5 -999 267 -999
2007-07-10 06:04:33 51°13.599 2°56.096 125.5 -999 146 -999
2007-07-10 06:05:33 51°13.599 2°56.096 125.5 -999 267 -999
2007-07-10 06:06:33 51°13.599 2°56.096 125.5 -999 233 -999
2007-07-10 06:07:33 51°13.599 2°56.096 125.5 -999 126 -999
2007-07-10 06:08:33 51°13.599 2°56.096 125.5 -999 313 -999
2007-07-10 06:09:33 51°13.599 2°56.097 125.4 -999 82 -999
2007-07-10 06:10:33 51°13.599 2°56.097 125.6 -999 111 -999
2007-07-10 06:11:33 51°13.599 2°56.097 125.5 -999 35 -999
2007-07-10 06:12:33 51°13.598 2°56.096 125.2 -999 325 -999
2007-07-10 06:13:33 51°13.597 2°56.097 125.3 -999 94 -999
2007-07-10 06:14:33 51°13.597 2°56.097 125.5 -999 281 -999
2007-07-10 06:15:33 51°13.597 2°56.097 125.3 -999 286 -999
2007-07-10 06:16:33 51°13.598 2°56.096 125.3 -999 321 -999
2007-07-10 06:17:33 51°13.598 2°56.096 125.2 -999 171 -999
2007-07-10 06:18:33 51°13.598 2°56.096 125.2 -999 313 -999
2007-07-10 06:19:33 51°13.598 2°56.096 124.8 -999 317 -999
2007-07-10 06:20:33 51°13.597 2°56.096 125 -999 309 -999
2007-07-10 06:21:33 51°13.598 2°56.094 125.1 -999 275 -999
2007-07-10 06:22:33 51°13.598 2°56.094 125.1 -999 299 -999
2007-07-10 06:23:33 51°13.599 2°56.094 125.2 -999 25 -999
2007-07-10 06:24:33 51°13.599 2°56.093 125.3 -999 306 -999
2007-07-10 06:25:33 51°13.599 2°56.094 125.3 -999 244 -999
2007-07-10 06:26:33 51°13.6 2°56.093 125.2 -999 321 -999
2007-07-10 06:27:33 51°13.6 2°56.093 125.2 -999 253 -999
2007-07-10 06:28:33 51°13.6 2°56.093 125.3 -999 343 -999
2007-07-10 06:29:33 51°13.599 2°56.094 125.3 -999 137 -999
2007-07-10 06:30:33 51°13.598 2°56.096 125.4 -999 151 -999
2007-07-10 06:31:33 51°13.597 2°56.097 125.5 -999 194 -999
2007-07-10 06:32:33 51°13.597 2°56.097 125.5 -999 330 -999
2007-07-10 06:33:33 51°13.597 2°56.098 125.5 -999 70 -999
2007-07-10 06:34:33 51°13.597 2°56.097 125.5 -999 312 -999
2007-07-10 06:35:33 51°13.597 2°56.097 125.5 -999 53 -999
2007-07-10 06:36:33 51°13.598 2°56.097 125.5 -999 335 -999
2007-07-10 06:37:33 51°13.597 2°56.097 125.5 -999 322 -999
2007-07-10 06:38:33 51°13.596 2°56.097 125.5 -999 14 -999
2007-07-10 06:39:33 51°13.597 2°56.097 125.5 -999 164 -999
2007-07-10 06:40:33 51°13.597 2°56.096 125.7 -999 285 -999
2007-07-10 06:41:33 51°13.597 2°56.092 125.5 -999 257 -999
2007-07-10 06:42:33 51°13.595 2°56.098 125.5 -999 83 -999
2007-07-10 06:43:33 51°13.59 2°56.096 125.5 -999 44 -999
2007-07-10 06:44:33 51°13.592 2°56.1 125.5 -999 120 -999
2007-07-10 06:45:33 51°13.595 2°56.098 125.2 -999 294 -999
2007-07-10 06:46:33 51°13.595 2°56.098 124.8 -999 147 -999
2007-07-10 06:47:33 51°13.596 2°56.099 125.3 -999 1 -999
2007-07-10 06:48:33 51°13.596 2°56.097 124.9 -999 271 -999
2007-07-10 06:49:33 51°13.596 2°56.096 124.6 -999 344 -999
2007-07-10 06:50:33 51°13.596 2°56.098 124.8 -999 163 -999
2007-07-10 06:51:33 51°13.596 2°56.099 124.8 -999 298 -999
2007-07-10 06:52:33 51°13.596 2°56.099 124.8 -999 145 -999
2007-07-10 06:53:33 51°13.597 2°56.099 124.8 -999 104 -999
2007-07-10 06:54:33 51°13.597 2°56.098 124.9 0.1 125 -999
2007-07-10 06:55:33 51°13.597 2°56.098 124.8 -999 273 -999
2007-07-10 06:56:33 51°13.597 2°56.098 124.8 -999 324 -999
2007-07-10 06:57:33 51°13.597 2°56.097 125.4 -999 294 -999
2007-07-10 06:58:33 51°13.597 2°56.097 125.9 0.1 343 -999
2007-07-10 06:59:33 51°13.597 2°56.097 125.9 -999 205 -999
2007-07-10 07:00:33 51°13.597 2°56.097 124.9 -999 104 -999
2007-07-10 07:01:33 51°13.598 2°56.096 125.1 -999 109 -999
2007-07-10 07:02:33 51°13.598 2°56.097 125.5 -999 153 -999
2007-07-10 07:03:33 51°13.598 2°56.096 125.5 -999 289 -999
2007-07-10 07:04:33 51°13.598 2°56.097 125.8 -999 93 -999
2007-07-10 07:05:33 51°13.598 2°56.097 125.4 -999 195 -999
2007-07-10 07:06:33 51°13.597 2°56.098 125.3 -999 123 -999
2007-07-10 07:07:33 51°13.598 2°56.097 125.6 -999 307 -999
2007-07-10 07:08:33 51°13.597 2°56.1 125.5 -999 235 -999
2007-07-10 07:09:33 51°13.597 2°56.098 125.4 -999 153 -999
2007-07-10 07:10:33 51°13.598 2°56.093 125.3 -999 308 -999
2007-07-10 07:11:33 51°13.597 2°56.098 125.4 -999 296 -999
2007-07-10 07:12:33 51°13.597 2°56.099 125.5 -999 192 -999
2007-07-10 07:13:33 51°13.597 2°56.099 125.6 -999 138 -999
2007-07-10 07:14:33 51°13.597 2°56.1 125.5 -999 310 -999
2007-07-10 07:15:33 51°13.597 2°56.099 125.5 -999 295 -999
2007-07-10 07:16:33 51°13.597 2°56.103 125.5 -999 255 -999
2007-07-10 07:17:33 51°13.597 2°56.095 125.5 -999 159 -999
2007-07-10 07:18:33 51°13.597 2°56.097 125.5 -999 316 -999
2007-07-10 07:19:33 51°13.597 2°56.1 125.5 -999 34 -999
2007-07-10 07:20:33 51°13.597 2°56.097 125.5 -999 329 -999
2007-07-10 07:21:33 51°13.597 2°56.097 125.6 -999 157 -999
2007-07-10 07:22:33 51°13.598 2°56.09 125.5 -999 64 -999
2007-07-10 07:23:33 51°13.598 2°56.095 125.2 -999 119 -999
2007-07-10 07:24:33 51°13.598 2°56.097 125.5 -999 316 -999
2007-07-10 07:25:33 51°13.598 2°56.096 125.7 -999 325 -999
2007-07-10 07:26:33 51°13.597 2°56.095 125.5 -999 67 -999
2007-07-10 07:27:33 51°13.598 2°56.095 125.5 -999 207 -999
2007-07-10 07:28:33 51°13.599 2°56.096 125.5 -999 163 -999
2007-07-10 07:29:33 51°13.603 2°56.1 125.6 -999 257 -999
2007-07-10 07:30:33 51°13.605 2°56.104 125.6 -999 69 -999
2007-07-10 07:31:33 51°13.598 2°56.1 125.7 -999 26 -999
2007-07-10 07:32:33 51°13.591 2°56.095 125.6 -999 244 -999
2007-07-10 07:33:33 51°13.592 2°56.097 125.6 -999 31 -999
2007-07-10 07:34:33 51°13.593 2°56.102 125.6 -999 332 -999
2007-07-10 07:35:33 51°13.595 2°56.102 125.6 -999 222 -999
2007-07-10 07:36:33 51°13.596 2°56.103 125.6 -999 162 -999
2007-07-10 07:37:33 51°13.593 2°56.099 125.6 -999 46 -999
2007-07-10 07:38:33 51°13.595 2°56.098 125.6 -999 186 -999
2007-07-10 07:39:33 51°13.6 2°56.103 125.6 -999 242 -999
2007-07-10 07:40:33 51°13.603 2°56.104 125.8 -999 243 -999
2007-07-10 07:41:33 51°13.596 2°56.099 125.7 -999 200 -999
2007-07-10 07:42:33 51°13.601 2°56.105 125.6 -999 183 -999
2007-07-10 07:43:33 51°13.595 2°56.097 125.6 -999 357 -999
2007-07-10 07:44:33 51°13.59 2°56.091 125.6 -999 296 -999
2007-07-10 07:45:33 51°13.594 2°56.094 125.6 -999 273 -999
2007-07-10 07:46:33 51°13.596 2°56.095 125.7 -999 350 -999
2007-07-10 07:47:33 51°13.596 2°56.094 125.7 -999 350 -999
2007-07-10 07:48:33 51°13.596 2°56.094 125.7 -999 90 -999
2007-07-10 07:49:33 51°13.597 2°56.094 125.7 -999 140 -999
2007-07-10 07:50:33 51°13.598 2°56.094 125.6 -999 24 -999
2007-07-10 07:51:33 51°13.599 2°56.095 125.7 -999 2 -999
2007-07-10 07:52:33 51°13.598 2°56.096 125.6 -999 153 -999
2007-07-10 07:53:33 51°13.598 2°56.097 125.6 -999 344 -999
2007-07-10 07:54:33 51°13.594 2°56.087 125.6 -999 180 -999
2007-07-10 07:55:33 51°13.602 2°56.101 125.6 -999 204 -999
2007-07-10 07:56:33 51°13.599 2°56.096 125.6 -999 176 -999
2007-07-10 07:57:33 51°13.6 2°56.094 125.6 -999 33 -999
2007-07-10 07:58:33 51°13.602 2°56.093 125.6 -999 34 -999
2007-07-10 07:59:33 51°13.603 2°56.095 125.6 -999 329 -999
2007-07-10 08:00:33 51°13.604 2°56.097 125.5 -999 265 -999
2007-07-10 08:01:33 51°13.605 2°56.097 125.5 -999 357 -999
2007-07-10 08:02:33 51°13.605 2°56.097 125.6 -999 168 -999
2007-07-10 08:03:33 51°13.604 2°56.096 125.6 -999 6 -999
2007-07-10 08:04:33 51°13.602 2°56.097 125.6 -999 219 -999
2007-07-10 08:05:33 51°13.6 2°56.097 125.6 -999 352 -999
2007-07-10 08:06:33 51°13.599 2°56.097 125.7 -999 149 -999
2007-07-10 08:07:33 51°13.597 2°56.097 125.6 -999 203 -999
2007-07-10 08:08:33 51°13.599 2°56.096 125.6 -999 184 -999
2007-07-10 08:09:33 51°13.599 2°56.096 125.6 -999 345 -999
2007-07-10 08:10:33 51°13.598 2°56.096 125.7 0.1 3 -999
2007-07-10 08:11:33 51°13.597 2°56.097 125.7 0.1 359 -999
2007-07-10 08:12:33 51°13.598 2°56.096 125.6 0.1 8 -999
2007-07-10 08:13:33 51°13.598 2°56.097 125.6 -999 350 -999
2007-07-10 08:14:33 51°13.598 2°56.097 125.6 -999 183 -999
2007-07-10 08:15:33 51°13.598 2°56.097 125.6 -999 347 -999
2007-07-10 08:16:33 51°13.596 2°56.097 125.6 -999 1 -999
2007-07-10 08:17:33 51°13.596 2°56.097 125.7 -999 4 -999
2007-07-10 08:18:33 51°13.594 2°56.098 125.5 -999 217 -999
2007-07-10 08:19:33 51°13.594 2°56.098 125.2 -999 29 -999
2007-07-10 08:20:33 51°13.595 2°56.098 125.2 -999 149 -999
2007-07-10 08:21:33 51°13.595 2°56.098 125 -999 149 -999
2007-07-10 08:22:33 51°13.595 2°56.099 125.4 -999 227 -999
2007-07-10 08:23:33 51°13.595 2°56.099 125.7 -999 9 -999
2007-07-10 08:24:33 51°13.596 2°56.098 125.6 -999 192 -999
2007-07-10 08:25:33 51°13.596 2°56.098 125.4 -999 61 -999
2007-07-10 08:26:33 51°13.596 2°56.097 125.3 -999 148 -999
2007-07-10 08:27:33 51°13.596 2°56.097 125.7 -999 172 -999
2007-07-10 08:28:33 51°13.597 2°56.096 125.9 0.1 183 -999
2007-07-10 08:29:33 51°13.598 2°56.096 125.5 -999 127 -999
2007-07-10 08:30:33 51°13.596 2°56.097 125.5 -999 8 -999
2007-07-10 08:31:33 51°13.594 2°56.098 125.5 -999 25 -999
2007-07-10 08:32:33 51°13.594 2°56.098 125.5 -999 175 -999
2007-07-10 08:33:33 51°13.594 2°56.098 125.6 -999 12 -999
2007-07-10 08:34:33 51°13.593 2°56.098 125.5 -999 194 -999
2007-07-10 08:35:33 51°13.594 2°56.098 125.5 -999 353 -999
2007-07-10 08:36:33 51°13.596 2°56.099 125.6 -999 150 -999
2007-07-10 08:37:33 51°13.597 2°56.098 125.5 -999 62 -999
2007-07-10 08:38:33 51°13.597 2°56.099 125.5 0.1 184 -999
2007-07-10 08:39:33 51°13.597 2°56.098 125.3 -999 188 -999
2007-07-10 08:40:33 51°13.596 2°56.097 125.4 -999 202 -999
2007-07-10 08:41:33 51°13.597 2°56.096 125.5 -999 184 10.5
2007-07-10 08:42:31 51°13.596 2°56.096 125.5 -999 156 10.5
2007-07-10 08:43:32 51°13.596 2°56.095 125.6 -999 202 10.5
2007-07-10 08:44:30 51°13.596 2°56.096 125.5 -999 162 10.5
2007-07-10 08:45:30 51°13.596 2°56.096 125.5 -999 94 10.5
2007-07-10 08:46:30 51°13.596 2°56.096 125.5 -999 10 10.5
2007-07-10 08:47:30 51°13.595 2°56.097 125.5 -999 35 10.5
2007-07-10 08:48:30 51°13.596 2°56.096 125.5 -999 69 10.5
2007-07-10 08:49:30 51°13.597 2°56.096 125.5 -999 163 10.6
2007-07-10 08:50:30 51°13.598 2°56.095 125.5 -999 18 10.5
2007-07-10 08:51:30 51°13.597 2°56.095 125.5 -999 25 10.5
2007-07-10 08:52:30 51°13.598 2°56.096 125.5 -999 322 10.5
2007-07-10 08:53:33 51°13.598 2°56.096 125.4 -999 285 10.5
2007-07-10 08:54:33 51°13.597 2°56.097 125.4 -999 80 10.5
2007-07-10 08:55:33 51°13.595 2°56.098 125.5 -999 62 -999
2007-07-10 08:56:32 51°13.598 2°56.094 125.6 -999 30 10.4
2007-07-10 08:57:31 51°13.597 2°56.096 125.6 -999 335 10.5
2007-07-10 08:58:31 51°13.597 2°56.096 125.6 -999 247 -999
2007-07-10 08:59:32 51°13.598 2°56.096 125.6 -999 318 10.5
2007-07-10 09:00:31 51°13.598 2°56.096 125.6 -999 135 -999
2007-07-10 09:01:29 51°13.599 2°56.096 125.6 -999 188 10.4
2007-07-10 09:02:30 51°13.599 2°56.095 125.6 -999 216 -999
2007-07-10 09:03:31 51°13.599 2°56.096 125.6 -999 284 -999
2007-07-10 09:04:30 51°13.598 2°56.096 125.6 -999 211 10.4
2007-07-10 09:05:29 51°13.598 2°56.096 125.6 -999 107 10.4
2007-07-10 09:06:30 51°13.598 2°56.096 125.7 -999 252 10.4
2007-07-10 09:07:30 51°13.598 2°56.096 125.7 -999 295 10.4
2007-07-10 09:08:30 51°13.597 2°56.097 125.7 -999 113 10.4
2007-07-10 09:09:30 51°13.598 2°56.096 125.8 -999 293 10.4
2007-07-10 09:10:30 51°13.599 2°56.095 126.4 -999 254 10.3
2007-07-10 09:11:30 51°13.599 2°56.096 126.7 -999 155 10.4
2007-07-10 09:12:30 51°13.6 2°56.084 115.4 2 292 10.5
2007-07-10 09:13:33 51°13.629 2°55.994 122.7 4.4 299 -999
2007-07-10 09:14:33 51°13.673 2°55.891 126.7 4.5 304 -999
2007-07-10 09:15:33 51°13.705 2°55.794 109.6 4.1 289 -999
2007-07-10 09:16:33 51°13.714 2°55.717 89.8 1 279 14.1
2007-07-10 09:17:30 51°13.727 2°55.731 34.9 1.7 23 14.7
2007-07-10 09:18:33 51°13.72 2°55.729 3.4 0.7 347 -999
2007-07-10 09:19:32 51°13.77 2°55.688 334.7 5.4 332 13.2
2007-07-10 09:20:30 51°13.872 2°55.606 338.6 8 335 13
2007-07-10 09:21:30 51°13.999 2°55.515 339.1 8.5 335 -999
2007-07-10 09:22:30 51°14.127 2°55.424 338.7 8.5 335 -999
2007-07-10 09:23:32 51°14.253 2°55.293 323.6 9.2 318 12.9
2007-07-10 09:24:31 51°14.355 2°55.092 310.5 10.8 307 13.1
2007-07-10 09:25:30 51°14.472 2°54.832 305.6 12.6 305 12.8
2007-07-10 09:26:29 51°14.588 2°54.563 304.7 12.5 305 12.1
2007-07-10 09:27:30 51°14.711 2°54.288 306.9 12.6 307 12.1
2007-07-10 09:28:29 51°14.831 2°54.024 302.9 12.5 302 11.4
2007-07-10 09:29:30 51°14.913 2°53.722 281.3 12.2 279 11.5
2007-07-10 09:30:30 51°14.92 2°53.397 272.3 12.3 271 11.8
2007-07-10 09:31:30 51°14.929 2°53.07 274.3 12.4 274 12.8
2007-07-10 09:32:30 51°14.941 2°52.741 274.6 12.3 274 12.8
2007-07-10 09:33:29 51°14.953 2°52.422 274.6 12.3 273 12.3
2007-07-10 09:34:29 51°14.967 2°52.098 275 12.3 273 12.6
2007-07-10 09:35:30 51°14.982 2°51.768 275.4 12.3 275 12.9
2007-07-10 09:36:30 51°15.048 2°51.459 294.6 12.5 294 13.7
2007-07-10 09:37:30 51°15.124 2°51.153 289.2 12.4 289 14
2007-07-10 09:38:30 51°15.19 2°50.843 290.2 12.4 290 14.2
2007-07-10 09:39:30 51°15.263 2°50.536 289.9 12.3 290 14.4
2007-07-10 09:40:30 51°15.336 2°50.229 290.5 12.4 290 14.5
2007-07-10 09:41:30 51°15.407 2°49.921 290 12.4 290 14.6
2007-07-10 09:42:29 51°15.476 2°49.617 290.5 12.4 290 14.7
2007-07-10 09:43:30 51°15.549 2°49.304 290.8 12.4 291 14.2
2007-07-10 09:44:29 51°15.618 2°49.002 290.6 12.4 290 12.5
2007-07-10 09:45:30 51°15.69 2°48.687 290.3 12.5 290 12.5
2007-07-10 09:46:30 51°15.76 2°48.375 290.5 12.5 290 13.5
2007-07-10 09:47:30 51°15.831 2°48.063 290.3 12.4 290 15.6
2007-07-10 09:48:30 51°15.902 2°47.754 289.9 12.4 290 17
2007-07-10 09:49:29 51°15.972 2°47.453 290.2 12.3 290 17.6
2007-07-10 09:50:29 51°16.045 2°47.148 290.5 12.3 291 17.6
2007-07-10 09:51:30 51°16.119 2°46.838 290.5 12.3 290 15.3
2007-07-10 09:52:30 51°16.192 2°46.529 289.5 12.4 289 13.4
2007-07-10 09:53:30 51°16.268 2°46.223 289.6 12.3 291 11.5
2007-07-10 09:54:30 51°16.341 2°45.914 290.5 12.5 291 11.4
2007-07-10 09:55:30 51°16.416 2°45.6 290.6 12.6 292 12.6
2007-07-10 09:56:30 51°16.491 2°45.288 290.1 12.6 291 13.1
2007-07-10 09:57:30 51°16.566 2°44.975 290.5 12.6 291 13.1
2007-07-10 09:58:30 51°16.64 2°44.663 290.6 12.7 292 13.8
2007-07-10 09:59:30 51°16.715 2°44.35 290.1 12.7 291 15.9
2007-07-10 10:00:30 51°16.79 2°44.036 290.3 12.6 290 16.2
2007-07-10 10:01:30 51°16.896 2°43.748 307.5 12.8 309 16.5
2007-07-10 10:02:29 51°17.027 2°43.485 306 12.8 307 15.2
2007-07-10 10:03:30 51°17.155 2°43.206 306.2 12.8 307 14.5
2007-07-10 10:04:30 51°17.279 2°42.934 306 12.6 307 11.8
2007-07-10 10:05:30 51°17.404 2°42.665 305.7 12.8 307 14.6
2007-07-10 10:06:30 51°17.533 2°42.394 305.8 12.8 307 24
2007-07-10 10:07:30 51°17.659 2°42.123 305.7 12.7 307 25.2
2007-07-10 10:08:30 51°17.782 2°41.849 305.1 12.7 306 25.2
2007-07-10 10:09:30 51°17.912 2°41.58 306.7 12.7 308 24.7
2007-07-10 10:10:30 51°18.038 2°41.31 306.8 12.7 307 23.2
2007-07-10 10:11:30 51°18.164 2°41.04 306.3 12.6 306 20.7
2007-07-10 10:12:30 51°18.29 2°40.776 307.1 12.5 308 18.1
2007-07-10 10:13:30 51°18.417 2°40.51 305.7 12.6 307 16.3
2007-07-10 10:14:30 51°18.546 2°40.248 306.8 12.7 308 23.2
2007-07-10 10:15:30 51°18.675 2°39.979 305.5 12.9 308 25.6
2007-07-10 10:16:30 51°18.805 2°39.709 305.6 12.8 307 25.4
2007-07-10 10:17:30 51°18.935 2°39.436 306.5 12.9 307 26.2
2007-07-10 10:18:30 51°19.062 2°39.161 304.3 12.9 305 28.4
2007-07-10 10:19:30 51°19.184 2°38.881 304.4 12.8 304 29.2
2007-07-10 10:20:30 51°19.302 2°38.598 304.1 12.8 304 28
2007-07-10 10:21:30 51°19.421 2°38.316 303.5 12.8 303 24.9
2007-07-10 10:22:30 51°19.539 2°38.034 304.7 12.8 304 23.2
2007-07-10 10:23:30 51°19.659 2°37.755 304.6 12.7 305 22.8
2007-07-10 10:24:30 51°19.778 2°37.477 303.8 12.7 304 22.9
2007-07-10 10:25:30 51°19.898 2°37.199 304.6 12.7 305 22.9
2007-07-10 10:26:30 51°19.988 2°36.991 297.5 6.1 300 22.8
2007-07-10 10:27:30 51°20.033 2°36.89 306.2 3.6 320 23.7
2007-07-10 10:28:30 51°20.079 2°36.868 351.3 1.9 12 23.4
2007-07-10 10:29:30 51°20.098 2°36.884 22.8 0.9 49 21.8
2007-07-10 10:30:30 51°20.107 2°36.9 45.7 0.9 43 -999
2007-07-10 10:31:30 51°20.118 2°36.92 62.1 1 51 23.2
2007-07-10 10:32:30 51°20.13 2°36.942 69.5 1.1 59 22.6
2007-07-10 10:33:30 51°20.143 2°36.978 82.7 2.6 71 20.5
2007-07-10 10:34:31 51°20.159 2°36.995 110 1.2 341 -999
2007-07-10 10:35:33 51°20.17 2°37.016 128.4 1.6 93 5
2007-07-10 10:36:31 51°20.157 2°37.055 168.1 1.6 146 22.9
2007-07-10 10:37:29 51°20.123 2°37.039 228.6 1.9 222 22.5
2007-07-10 10:38:30 51°20.107 2°36.997 241.8 1.8 247 21.6
2007-07-10 10:39:30 51°20.094 2°36.955 242.5 1.8 245 25
2007-07-10 10:40:30 51°20.086 2°36.921 243.8 1.3 254 26.2
2007-07-10 10:41:30 51°20.089 2°36.92 238.3 0.7 49 24.5
2007-07-10 10:42:31 51°20.092 2°36.923 247.1 0.3 282 23.2
2007-07-10 10:43:30 51°20.098 2°36.929 263.1 0.9 51 25.3
2007-07-10 10:44:31 51°20.107 2°36.948 264.6 1 53 4.7
2007-07-10 10:45:30 51°20.117 2°36.969 265.7 0.8 46 23
2007-07-10 10:46:29 51°20.119 2°36.967 230.9 0.5 223 22.8
2007-07-10 10:47:30 51°20.102 2°36.954 215.6 1.7 204 23.6
2007-07-10 10:48:29 51°20.079 2°36.926 227.2 1.4 220 26.3
2007-07-10 10:49:30 51°20.065 2°36.909 225.3 0.8 206 24.2
2007-07-10 10:50:30 51°20.06 2°36.909 225.8 0.3 141 24.1
2007-07-10 10:51:30 51°20.058 2°36.912 228.3 0.2 176 24.2
2007-07-10 10:52:30 51°20.055 2°36.914 229.7 0.1 104 24
2007-07-10 10:53:30 51°20.055 2°36.921 230.3 0.3 82 24.3
2007-07-10 10:54:30 51°20.058 2°36.93 231.8 0.6 69 24.4
2007-07-10 10:55:30 51°20.063 2°36.942 232.5 0.5 60 24.2
2007-07-10 10:56:30 51°20.067 2°36.957 229.3 0.7 64 24.2
2007-07-10 10:57:30 51°20.073 2°36.975 222.7 0.8 65 23.6
2007-07-10 10:58:30 51°20.081 2°36.995 209.3 0.9 58 21.8
2007-07-10 10:59:30 51°20.089 2°37.015 195 0.9 56 21.5
2007-07-10 11:00:30 51°20.098 2°37.035 183.4 1 57 21.4
2007-07-10 11:01:30 51°20.107 2°37.053 171.5 0.8 49 22.4
2007-07-10 11:02:30 51°20.115 2°37.071 162.9 0.9 53 22.6
2007-07-10 11:03:30 51°20.124 2°37.088 156 0.8 53 22.9
2007-07-10 11:04:29 51°20.133 2°37.105 153.2 0.9 53 21.5
2007-07-10 11:05:30 51°20.134 2°37.126 161.1 1.4 140 21.6
2007-07-10 11:06:30 51°20.088 2°37.099 229.8 4.3 232 22.7
2007-07-10 11:07:29 51°20.053 2°36.97 260.5 6 263 23.2
2007-07-10 11:08:30 51°20.045 2°36.859 253.5 3 252 23.2
2007-07-10 11:09:30 51°20.03 2°36.815 237.3 1.1 242 22.2
2007-07-10 11:10:30 51°20.025 2°36.795 242.6 0.6 248 21.6
2007-07-10 11:11:30 51°20.024 2°36.784 242.6 0.3 274 21.2
2007-07-10 11:12:30 51°20.025 2°36.78 243 0.2 343 20.9
2007-07-10 11:13:30 51°20.028 2°36.782 243.5 0.3 36 21.2
2007-07-10 11:14:30 51°20.032 2°36.789 243.5 0.5 54 21.5
2007-07-10 11:15:30 51°20.036 2°36.801 237.3 0.6 52 22
2007-07-10 11:16:30 51°20.042 2°36.815 228.3 0.7 66 21.9
2007-07-10 11:17:30 51°20.048 2°36.831 213.1 0.7 45 22.2
2007-07-10 11:18:30 51°20.055 2°36.848 196.8 0.7 52 22.9
2007-07-10 11:19:30 51°20.05 2°36.865 173.4 1 140 22.9
2007-07-10 11:20:30 51°20.037 2°36.888 151 1.5 131 23.1
2007-07-10 11:21:30 51°20.028 2°36.918 142.5 0.9 101 22.9
2007-07-10 11:22:30 51°20.028 2°36.935 158.6 0.6 58 22.8
2007-07-10 11:23:30 51°20.038 2°36.945 160.1 0.9 26 23.1
2007-07-10 11:24:30 51°20.049 2°36.955 146 0.9 91 23.5
2007-07-10 11:25:30 51°20.048 2°36.976 147.2 0.7 99 22.8
2007-07-10 11:26:30 51°20.048 2°36.993 150.4 0.7 83 22.1
2007-07-10 11:27:30 51°20.048 2°37.009 155.3 0.6 86 21.3
2007-07-10 11:28:30 51°20.049 2°37.023 160.1 0.5 76 20.3
2007-07-10 11:29:30 51°20.051 2°37.035 164.5 0.4 71 21.9
2007-07-10 11:30:30 51°20.054 2°37.046 169.9 0.4 66 22.3
2007-07-10 11:31:30 51°20.056 2°37.056 177.3 0.4 65 21.6
2007-07-10 11:32:30 51°20.059 2°37.066 184.6 0.4 60 20.5
2007-07-10 11:33:30 51°20.063 2°37.075 190.1 0.4 54 20.3
2007-07-10 11:34:29 51°20.066 2°37.085 191.1 0.4 49 21.6
2007-07-10 11:35:30 51°20.071 2°37.096 189.1 0.5 57 22
2007-07-10 11:36:30 51°20.075 2°37.107 185.8 0.5 54 22
2007-07-10 11:37:30 51°20.08 2°37.117 184 0.5 63 22.4
2007-07-10 11:38:30 51°20.084 2°37.127 182.2 0.4 50 22.2
2007-07-10 11:39:30 51°20.088 2°37.138 180.5 0.5 53 22.5
2007-07-10 11:40:30 51°20.094 2°37.149 178.5 0.5 56 22
2007-07-10 11:41:30 51°20.097 2°37.161 176.7 0.5 64 21
2007-07-10 11:42:30 51°20.102 2°37.171 175.7 0.5 55 20.8
2007-07-10 11:43:30 51°20.107 2°37.18 175.5 0.4 51 21.1
2007-07-10 11:44:30 51°20.111 2°37.19 176.9 0.4 55 22.3
2007-07-10 11:45:30 51°20.115 2°37.2 177.4 0.5 56 22.5
2007-07-10 11:46:30 51°20.12 2°37.21 176.5 0.5 56 22.7
2007-07-10 11:47:30 51°20.123 2°37.22 175.6 0.4 47 22.8
2007-07-10 11:48:30 51°20.126 2°37.229 175.8 0.4 60 22.5
2007-07-10 11:49:30 51°20.13 2°37.237 175.2 0.4 62 22
2007-07-10 11:50:30 51°20.134 2°37.245 176.3 0.5 53 20.5
2007-07-10 11:51:30 51°20.138 2°37.253 176.7 0.4 54 21.5
2007-07-10 11:52:30 51°20.141 2°37.261 178.7 0.4 57 21.9
2007-07-10 11:53:30 51°20.145 2°37.268 177.6 0.3 51 22.5
2007-07-10 11:54:30 51°20.135 2°37.269 202.8 1.4 199 22.3
2007-07-10 11:55:30 51°20.111 2°37.249 216.3 1.8 215 22.4
2007-07-10 11:56:30 51°20.086 2°37.213 228 2.2 228 21.3
2007-07-10 11:57:30 51°20.062 2°37.166 237.7 2.4 239 21.9
2007-07-10 11:58:30 51°20.05 2°37.107 259.8 2.1 262 21.5
2007-07-10 11:59:30 51°20.045 2°37.062 258 1.5 260 21.5
2007-07-10 12:00:30 51°20.041 2°37.029 257.4 1.1 254 19.9
2007-07-10 12:01:30 51°20.039 2°37.005 260.1 0.7 259 21.3
2007-07-10 12:02:30 51°20.039 2°36.988 264.5 0.6 276 22.1
2007-07-10 12:03:30 51°20.039 2°36.977 268.6 0.3 271 22.1
2007-07-10 12:04:30 51°20.04 2°36.97 273.2 0.3 300 22.5
2007-07-10 12:05:30 51°20.041 2°36.959 266.5 0.3 281 22.5
2007-07-10 12:06:30 51°20.041 2°36.953 262.4 0.2 255 22.5
2007-07-10 12:07:30 51°20.041 2°36.95 259.4 0.1 213 22.8
2007-07-10 12:08:31 51°20.041 2°36.949 253.8 0.1 139 22.7
2007-07-10 12:09:30 51°20.04 2°36.951 245.5 0.1 121 22.7
2007-07-10 12:10:30 51°20.04 2°36.955 233.5 0.2 101 22.5
2007-07-10 12:11:30 51°20.04 2°36.96 221.9 0.1 68 22.3
2007-07-10 12:12:30 51°20.041 2°36.964 208.4 0.2 62 22.3
2007-07-10 12:13:30 51°20.042 2°36.969 195.8 0.2 81 22.2
2007-07-10 12:14:30 51°20.043 2°36.972 185.1 0.1 47 22
2007-07-10 12:15:30 51°20.045 2°36.974 175.6 0.2 51 22.4
2007-07-10 12:16:30 51°20.047 2°36.977 168.4 0.2 26 22.1
2007-07-10 12:17:30 51°20.049 2°36.979 162.6 0.2 41 22.3
2007-07-10 12:18:30 51°20.051 2°36.981 159.5 0.2 28 22.3
2007-07-10 12:19:30 51°20.053 2°36.983 157.6 0.2 9 22
2007-07-10 12:20:30 51°20.056 2°36.984 157.2 0.1 7 22.3
2007-07-10 12:21:30 51°20.058 2°36.986 158.8 0.2 24 22.1
2007-07-10 12:22:30 51°20.06 2°36.987 158.7 0.1 5 22.1
2007-07-10 12:23:30 51°20.063 2°36.987 160 0.2 13 21.8
2007-07-10 12:24:30 51°20.065 2°36.987 162 0.1 27 21.8
2007-07-10 12:25:30 51°20.068 2°36.988 163 0.2 8 21.6
2007-07-10 12:26:30 51°20.07 2°36.988 165.4 0.1 350 21.7
2007-07-10 12:27:30 51°20.074 2°36.989 166.5 0.2 4 21.5
2007-07-10 12:28:30 51°20.077 2°36.989 165.7 0.1 348 21.2
2007-07-10 12:29:30 51°20.081 2°36.989 163.9 0.2 6 21.2
2007-07-10 12:30:30 51°20.084 2°36.989 162.3 0.2 344 21
2007-07-10 12:31:30 51°20.087 2°36.987 160.6 0.2 327 20.9
2007-07-10 12:32:30 51°20.09 2°36.986 159.6 0.2 351 20.7
2007-07-10 12:33:30 51°20.087 2°36.987 164.8 1.2 171 21
2007-07-10 12:34:30 51°20.054 2°36.967 217.1 2.8 219 22.5
2007-07-10 12:35:30 51°20.031 2°36.909 251 2.1 248 21.9
2007-07-10 12:36:30 51°20.025 2°36.893 257.3 0.6 83 21.6
2007-07-10 12:37:32 51°20.021 2°36.863 293.9 0.6 245 21.8
2007-07-10 12:38:30 51°20.052 2°36.82 356.3 3.1 347 21.4
2007-07-10 12:39:30 51°20.07 2°36.816 39.8 0.9 4 21.6
2007-07-10 12:40:30 51°20.082 2°36.833 70.1 1.5 56 22.2
2007-07-10 12:41:30 51°20.094 2°36.869 61 0.9 49 21.3
2007-07-10 12:42:30 51°20.101 2°36.876 39.1 0.8 24 20.8
2007-07-10 12:43:30 51°20.111 2°36.881 31.9 1.3 14 21.4
2007-07-10 12:44:30 51°20.124 2°36.89 33.5 0.1 309 21.6
2007-07-10 12:45:30 51°20.121 2°36.886 29.4 0.3 214 21.4
2007-07-10 12:46:30 51°20.115 2°36.881 36 0.5 199 21.3
2007-07-10 12:47:30 51°20.108 2°36.875 47.7 0.4 214 21.4
2007-07-10 12:48:30 51°20.11 2°36.889 68.7 1.6 70 21.5
2007-07-10 12:49:30 51°20.114 2°36.927 81.7 0.7 85 22.1
2007-07-10 12:50:30 51°20.109 2°36.921 77 0.5 226 22.3
2007-07-10 12:51:30 51°20.106 2°36.92 68.3 0.2 222 22.8
2007-07-10 12:52:30 51°20.102 2°36.915 58.4 0.4 219 22.5
2007-07-10 12:53:30 51°20.097 2°36.909 52.9 0.4 212 21.3
2007-07-10 12:54:30 51°20.092 2°36.903 45.4 0.3 230 20.3
2007-07-10 12:55:30 51°20.088 2°36.897 37.2 0.3 212 17.4
2007-07-10 12:56:30 51°20.085 2°36.891 33.6 0.3 226 21.7
2007-07-10 12:57:30 51°20.08 2°36.885 31.8 0.3 233 22.3
2007-07-10 12:58:30 51°20.076 2°36.88 30.8 0.3 218 22.4
2007-07-10 12:59:30 51°20.072 2°36.876 30.9 0.3 215 22.2
2007-07-10 13:00:30 51°20.067 2°36.872 33.3 0.4 210 22.4
2007-07-10 13:01:30 51°20.062 2°36.868 35 0.4 203 22.2
2007-07-10 13:02:30 51°20.057 2°36.863 36.6 0.3 202 22.4
2007-07-10 13:03:30 51°20.052 2°36.859 37.7 0.4 211 22.2
2007-07-10 13:04:30 51°20.047 2°36.855 37.3 0.4 195 22.1
2007-07-10 13:05:30 51°20.041 2°36.85 38.3 0.4 206 21.9
2007-07-10 13:06:30 51°20.035 2°36.845 36.9 0.4 202 21.5
2007-07-10 13:07:30 51°20.03 2°36.839 33.7 0.4 213 21.2
2007-07-10 13:08:30 51°20.024 2°36.833 32 0.4 201 21.2
2007-07-10 13:09:30 51°20.018 2°36.827 32.7 0.4 204 21
2007-07-10 13:10:30 51°20.012 2°36.821 36.1 0.5 213 20.9
2007-07-10 13:11:30 51°20.005 2°36.813 38.7 0.5 212 20.3
2007-07-10 13:12:30 51°19.997 2°36.805 39.2 0.5 215 19.1
2007-07-10 13:13:30 51°19.989 2°36.797 40.6 0.6 214 20.2
2007-07-10 13:14:30 51°19.981 2°36.789 44.1 0.6 214 21.1
2007-07-10 13:15:30 51°19.973 2°36.782 47.1 0.6 208 20.9
2007-07-10 13:16:30 51°19.964 2°36.775 49.2 0.6 213 20.7
2007-07-10 13:17:30 51°19.962 2°36.775 38 1.5 30 20.9
2007-07-10 13:18:30 51°19.987 2°36.882 97.5 7.1 105 21
2007-07-10 13:19:30 51°19.889 2°37.111 122.8 12.3 125 20.7
2007-07-10 13:20:30 51°19.771 2°37.384 123.5 12.5 125 21.5
2007-07-10 13:21:30 51°19.651 2°37.656 123.6 12.4 125 19.7
2007-07-10 13:22:30 51°19.531 2°37.928 124.8 12.4 125 20.4
2007-07-10 13:23:29 51°19.413 2°38.196 124.1 12.5 126 22
2007-07-10 13:24:30 51°19.289 2°38.475 124.1 12.8 126 24.9
2007-07-10 13:25:30 51°19.167 2°38.751 123.7 12.7 124 26.8
2007-07-10 13:26:30 51°19.047 2°39.03 124.9 12.7 125 26.8
2007-07-10 13:27:30 51°18.929 2°39.312 122.8 12.8 123 25
2007-07-10 13:28:30 51°18.809 2°39.593 124.5 12.8 124 23.8
2007-07-10 13:29:30 51°18.69 2°39.872 125 12.7 125 23.4
2007-07-10 13:30:30 51°18.568 2°40.148 124.3 12.7 125 22.8
2007-07-10 13:31:30 51°18.45 2°40.414 125.5 12 125 15
2007-07-10 13:32:30 51°18.329 2°40.679 124.9 12.4 126 18.7
2007-07-10 13:33:30 51°18.207 2°40.944 124.8 12.4 127 16
2007-07-10 13:34:30 51°18.086 2°41.215 124.8 12.6 125 19.5
2007-07-10 13:35:30 51°17.965 2°41.489 123.8 12.6 125 22.2
2007-07-10 13:36:30 51°17.844 2°41.764 124.3 12.8 125 23
2007-07-10 13:37:30 51°17.719 2°42.036 124.7 12.8 127 23.1
2007-07-10 13:38:30 51°17.595 2°42.309 123.8 12.7 126 22.3
2007-07-10 13:39:30 51°17.474 2°42.584 123.3 12.4 124 19.7
2007-07-10 13:40:30 51°17.359 2°42.851 123.3 11.8 124 8.4
2007-07-10 13:41:30 51°17.246 2°43.111 122.9 12.3 124 12.2
2007-07-10 13:42:30 51°17.128 2°43.376 124.1 12.5 125 12.9
2007-07-10 13:43:30 51°17.007 2°43.647 124.2 12.5 125 13.5
2007-07-10 13:44:30 51°16.883 2°43.917 124.5 12.6 127 14.1
2007-07-10 13:45:30 51°16.761 2°44.19 123.6 12.6 125 13.9
2007-07-10 13:46:29 51°16.642 2°44.46 125.3 12.8 126 12.4
2007-07-10 13:47:30 51°16.521 2°44.739 123.7 12.4 125 10.1
2007-07-10 13:48:30 51°16.407 2°45.017 118.3 12.5 117 10.2
2007-07-10 13:49:30 51°16.33 2°45.321 111.9 12.2 113 10.2
2007-07-10 13:50:30 51°16.251 2°45.624 111 12.2 112 9.4
2007-07-10 13:51:30 51°16.175 2°45.928 112.7 12.5 113 9.9
2007-07-10 13:52:30 51°16.101 2°46.232 110.7 12.3 111 11.3
2007-07-10 13:53:30 51°16.039 2°46.54 106.4 12.2 107 13.3
2007-07-10 13:54:30 51°15.976 2°46.848 108.1 12.2 110 15.1
2007-07-10 13:55:30 51°15.911 2°47.153 107.5 12.2 107 15.6
2007-07-10 13:56:30 51°15.849 2°47.456 106.6 11.9 108 15.2
2007-07-10 13:57:30 51°15.788 2°47.757 106.9 12.1 108 13.6
2007-07-10 13:58:30 51°15.726 2°48.062 106.5 12.1 107 11.7
2007-07-10 13:59:30 51°15.664 2°48.367 106.6 12.1 107 10.2
2007-07-10 14:00:30 51°15.602 2°48.673 107 12.1 107 9.4
2007-07-10 14:01:30 51°15.541 2°48.981 107.1 12.2 107 10.3
2007-07-10 14:02:30 51°15.477 2°49.29 107.6 12.4 108 11.9
2007-07-10 14:03:30 51°15.41 2°49.597 106.8 12.1 108 12
2007-07-10 14:04:30 51°15.346 2°49.902 106.2 12.1 108 11.8
2007-07-10 14:05:30 51°15.286 2°50.208 105.5 12.1 108 11.7
2007-07-10 14:06:30 51°15.224 2°50.513 105.9 12.1 108 11.7
2007-07-10 14:07:30 51°15.169 2°50.82 104.8 12 107 11.4
2007-07-10 14:08:30 51°15.118 2°51.125 101.5 11.9 103 11.2
2007-07-10 14:09:30 51°15.073 2°51.434 101.6 11.9 103 10.9
2007-07-10 14:10:30 51°15.026 2°51.745 102.4 12 104 10.4
2007-07-10 14:11:30 51°14.975 2°52.053 103 12 104 9.7
2007-07-10 14:12:30 51°14.931 2°52.364 101.7 12.1 103 9.2
2007-07-10 14:13:30 51°14.886 2°52.677 101.8 12.1 104 8.9
2007-07-10 14:14:30 51°14.84 2°52.991 102.4 12.3 103 8.7
2007-07-10 14:15:30 51°14.794 2°53.31 101.1 12.3 102 10
2007-07-10 14:16:30 51°14.746 2°53.628 102.6 12.4 102 9.6
2007-07-10 14:17:30 51°14.7 2°53.949 104.1 12.5 104 10.1
2007-07-10 14:18:30 51°14.642 2°54.264 106.2 12.3 107 9.8
2007-07-10 14:19:30 51°14.557 2°54.561 117 12.1 119 9.4
2007-07-10 14:20:30 51°14.454 2°54.843 119 12.3 120 9.9
2007-07-10 14:21:30 51°14.339 2°55.118 127.2 12.8 128 9.9
2007-07-10 14:22:30 51°14.203 2°55.345 142.2 11 142 9.8
2007-07-10 14:23:30 51°14.058 2°55.464 157.1 9.3 156 9.8
2007-07-10 14:24:30 51°13.915 2°55.567 158.2 9.1 157 10.3
2007-07-10 14:25:30 51°13.792 2°55.671 146.6 8 143 10.1
2007-07-10 14:26:30 51°13.705 2°55.812 132.6 6.9 130 10.2
2007-07-10 14:27:30 51°13.646 2°55.932 126.7 4.8 124 9.9
2007-07-10 14:28:34 51°13.615 2°56.032 113.1 2.9 113 -999
2007-07-10 14:29:33 51°13.6 2°56.088 119 1.3 119 -999